sensor_id;sensor_type;location;lat;lon;timestamp;temperature;humidity
10722;DHT22;5412;59.450;18.124;2022-09-09T00:04:41;11.80;99.90
10722;DHT22;5412;59.450;18.124;2022-09-09T00:07:13;11.80;99.90
10722;DHT22;5412;59.450;18.124;2022-09-09T00:15:12;11.80;99.90
10722;DHT22;5412;59.450;18.124;2022-09-09T00:20:13;11.90;99.90
10722;DHT22;5412;59.450;18.124;2022-09-09T00:22:47;11.90;99.90
10722;DHT22;5412;59.450;18.124;2022-09-09T00:25:33;11.80;99.90
10722;DHT22;5412;59.450;18.124;2022-09-09T00:28:00;11.70;99.90
10722;DHT22;5412;59.450;18.124;2022-09-09T00:30:29;11.70;99.90
10722;DHT22;5412;59.450;18.124;2022-09-09T00:33:01;11.70;99.90
10722;DHT22;5412;59.450;18.124;2022-09-09T00:35:42;11.80;99.90
10722;DHT22;5412;59.450;18.124;2022-09-09T00:38:18;11.90;99.90
10722;DHT22;5412;59.450;18.124;2022-09-09T00:41:11;11.90;99.90
10722;DHT22;5412;59.450;18.124;2022-09-09T00:43:40;12.00;99.90
10722;DHT22;5412;59.450;18.124;2022-09-09T00:46:32;12.00;99.90
10722;DHT22;5412;59.450;18.124;2022-09-09T00:57:29;12.10;99.90
10722;DHT22;5412;59.450;18.124;2022-09-09T01:00:22;12.10;99.90
10722;DHT22;5412;59.450;18.124;2022-09-09T01:06:01;12.20;99.90
10722;DHT22;5412;59.450;18.124;2022-09-09T01:11:25;12.20;99.90
10722;DHT22;5412;59.450;18.124;2022-09-09T01:27:53;12.40;99.90
10722;DHT22;5412;59.450;18.124;2022-09-09T01:30:21;12.40;99.90
10722;DHT22;5412;59.450;18.124;2022-09-09T01:32:50;12.50;99.90
10722;DHT22;5412;59.450;18.124;2022-09-09T01:38:02;12.50;99.90
10722;DHT22;5412;59.450;18.124;2022-09-09T01:40:27;12.50;99.90
10722;DHT22;5412;59.450;18.124;2022-09-09T01:42:54;12.50;99.90
10722;DHT22;5412;59.450;18.124;2022-09-09T01:45:21;12.50;99.90
10722;DHT22;5412;59.450;18.124;2022-09-09T01:47:47;12.40;99.90
10722;DHT22;5412;59.450;18.124;2022-09-09T01:50:16;12.50;99.90
10722;DHT22;5412;59.450;18.124;2022-09-09T01:52:43;12.40;99.90
10722;DHT22;5412;59.450;18.124;2022-09-09T01:55:10;12.40;99.90
10722;DHT22;5412;59.450;18.124;2022-09-09T02:00:46;12.30;99.90
10722;DHT22;5412;59.450;18.124;2022-09-09T02:03:23;12.40;99.90
10722;DHT22;5412;59.450;18.124;2022-09-09T02:06:30;12.30;99.90
10722;DHT22;5412;59.450;18.124;2022-09-09T02:09:02;12.30;99.90
10722;DHT22;5412;59.450;18.124;2022-09-09T02:11:29;12.30;99.90
10722;DHT22;5412;59.450;18.124;2022-09-09T02:14:06;12.40;99.90
10722;DHT22;5412;59.450;18.124;2022-09-09T02:16:48;12.40;99.90
10722;DHT22;5412;59.450;18.124;2022-09-09T02:19:25;12.40;99.90
10722;DHT22;5412;59.450;18.124;2022-09-09T02:21:55;12.50;99.90
10722;DHT22;5412;59.450;18.124;2022-09-09T02:24:22;12.50;99.90
10722;DHT22;5412;59.450;18.124;2022-09-09T02:26:51;12.50;99.90
10722;DHT22;5412;59.450;18.124;2022-09-09T02:29:25;12.50;99.90
10722;DHT22;5412;59.450;18.124;2022-09-09T02:31:52;12.50;99.90
10722;DHT22;5412;59.450;18.124;2022-09-09T02:34:23;12.50;99.90
10722;DHT22;5412;59.450;18.124;2022-09-09T02:36:51;12.50;99.90
10722;DHT22;5412;59.450;18.124;2022-09-09T02:39:19;12.60;99.90
10722;DHT22;5412;59.450;18.124;2022-09-09T02:41:44;12.80;99.90
10722;DHT22;5412;59.450;18.124;2022-09-09T02:44:15;12.60;99.90
10722;DHT22;5412;59.450;18.124;2022-09-09T02:50:20;12.70;99.90
10722;DHT22;5412;59.450;18.124;2022-09-09T02:57:58;12.80;99.90
10722;DHT22;5412;59.450;18.124;2022-09-09T03:00:28;12.80;99.90
10722;DHT22;5412;59.450;18.124;2022-09-09T03:02:54;12.80;99.90
10722;DHT22;5412;59.450;18.124;2022-09-09T03:05:21;12.90;99.90
10722;DHT22;5412;59.450;18.124;2022-09-09T03:07:47;13.00;99.90
10722;DHT22;5412;59.450;18.124;2022-09-09T03:10:12;13.40;99.90
10722;DHT22;5412;59.450;18.124;2022-09-09T03:12:39;13.10;99.90
10722;DHT22;5412;59.450;18.124;2022-09-09T03:15:05;13.10;99.90
10722;DHT22;5412;59.450;18.124;2022-09-09T03:17:31;13.10;99.90
10722;DHT22;5412;59.450;18.124;2022-09-09T03:19:57;13.20;99.90
10722;DHT22;5412;59.450;18.124;2022-09-09T03:22:24;13.20;99.90
10722;DHT22;5412;59.450;18.124;2022-09-09T03:24:51;13.20;99.90
10722;DHT22;5412;59.450;18.124;2022-09-09T03:27:17;13.30;99.90
10722;DHT22;5412;59.450;18.124;2022-09-09T03:29:43;13.30;99.90
10722;DHT22;5412;59.450;18.124;2022-09-09T03:32:09;13.30;99.90
10722;DHT22;5412;59.450;18.124;2022-09-09T03:34:36;13.30;99.90
10722;DHT22;5412;59.450;18.124;2022-09-09T03:37:04;13.40;99.90
10722;DHT22;5412;59.450;18.124;2022-09-09T03:39:31;13.40;99.90
10722;DHT22;5412;59.450;18.124;2022-09-09T03:41:56;13.50;99.90
10722;DHT22;5412;59.450;18.124;2022-09-09T03:44:22;13.50;99.90
10722;DHT22;5412;59.450;18.124;2022-09-09T03:46:48;13.60;99.90
10722;DHT22;5412;59.450;18.124;2022-09-09T03:49:13;14.70;99.90
10722;DHT22;5412;59.450;18.124;2022-09-09T03:51:39;13.70;99.90
10722;DHT22;5412;59.450;18.124;2022-09-09T03:54:06;13.70;99.90
10722;DHT22;5412;59.450;18.124;2022-09-09T03:56:34;13.70;99.90
10722;DHT22;5412;59.450;18.124;2022-09-09T03:58:59;13.80;99.90
10722;DHT22;5412;59.450;18.124;2022-09-09T04:01:25;13.80;99.90
10722;DHT22;5412;59.450;18.124;2022-09-09T04:03:51;13.80;99.90
10722;DHT22;5412;59.450;18.124;2022-09-09T04:06:18;13.80;99.90
10722;DHT22;5412;59.450;18.124;2022-09-09T04:08:45;13.80;99.90
10722;DHT22;5412;59.450;18.124;2022-09-09T04:11:14;13.90;99.90
10722;DHT22;5412;59.450;18.124;2022-09-09T04:13:40;13.90;99.90
10722;DHT22;5412;59.450;18.124;2022-09-09T04:16:08;13.90;99.90
10722;DHT22;5412;59.450;18.124;2022-09-09T04:18:35;13.90;99.90
10722;DHT22;5412;59.450;18.124;2022-09-09T04:21:02;13.80;99.90
10722;DHT22;5412;59.450;18.124;2022-09-09T04:23:29;13.90;99.90
10722;DHT22;5412;59.450;18.124;2022-09-09T04:25:55;13.80;99.90
10722;DHT22;5412;59.450;18.124;2022-09-09T04:28:23;13.80;99.90
10722;DHT22;5412;59.450;18.124;2022-09-09T04:30:49;13.80;99.90
10722;DHT22;5412;59.450;18.124;2022-09-09T04:33:15;13.90;99.90
10722;DHT22;5412;59.450;18.124;2022-09-09T04:35:49;13.90;99.90
10722;DHT22;5412;59.450;18.124;2022-09-09T04:38:16;13.90;99.90
10722;DHT22;5412;59.450;18.124;2022-09-09T04:40:52;13.90;99.90
10722;DHT22;5412;59.450;18.124;2022-09-09T04:43:19;13.90;99.90
10722;DHT22;5412;59.450;18.124;2022-09-09T04:45:49;14.00;99.90
10722;DHT22;5412;59.450;18.124;2022-09-09T04:48:16;14.00;99.90
10722;DHT22;5412;59.450;18.124;2022-09-09T04:50:42;14.00;99.90
10722;DHT22;5412;59.450;18.124;2022-09-09T04:53:07;13.10;99.90
10722;DHT22;5412;59.450;18.124;2022-09-09T04:55:34;14.10;99.90
10722;DHT22;5412;59.450;18.124;2022-09-09T04:58:07;14.20;99.90
10722;DHT22;5412;59.450;18.124;2022-09-09T05:00:34;14.20;99.90
10722;DHT22;5412;59.450;18.124;2022-09-09T05:03:04;14.20;99.90
10722;DHT22;5412;59.450;18.124;2022-09-09T05:05:31;14.20;99.90
10722;DHT22;5412;59.450;18.124;2022-09-09T05:08:07;14.20;99.90
10722;DHT22;5412;59.450;18.124;2022-09-09T05:10:37;14.30;99.90
10722;DHT22;5412;59.450;18.124;2022-09-09T05:13:04;14.30;99.90
10722;DHT22;5412;59.450;18.124;2022-09-09T05:15:30;14.30;99.90
10722;DHT22;5412;59.450;18.124;2022-09-09T05:17:59;14.30;99.90
10722;DHT22;5412;59.450;18.124;2022-09-09T05:20:26;14.40;99.90
10722;DHT22;5412;59.450;18.124;2022-09-09T05:22:55;14.40;99.90
10722;DHT22;5412;59.450;18.124;2022-09-09T05:25:22;14.40;99.90
10722;DHT22;5412;59.450;18.124;2022-09-09T05:27:50;14.50;99.90
10722;DHT22;5412;59.450;18.124;2022-09-09T05:30:16;14.40;99.90
10722;DHT22;5412;59.450;18.124;2022-09-09T05:32:44;14.50;99.90
10722;DHT22;5412;59.450;18.124;2022-09-09T05:35:09;14.50;99.90
10722;DHT22;5412;59.450;18.124;2022-09-09T05:37:35;14.50;99.90
10722;DHT22;5412;59.450;18.124;2022-09-09T05:40:01;14.50;99.90
10722;DHT22;5412;59.450;18.124;2022-09-09T05:42:30;14.60;99.90
10722;DHT22;5412;59.450;18.124;2022-09-09T05:44:56;14.60;99.90
10722;DHT22;5412;59.450;18.124;2022-09-09T05:47:23;14.70;99.90
10722;DHT22;5412;59.450;18.124;2022-09-09T05:49:49;14.70;99.90
10722;DHT22;5412;59.450;18.124;2022-09-09T05:52:14;14.70;99.90
10722;DHT22;5412;59.450;18.124;2022-09-09T05:54:40;14.80;99.90
10722;DHT22;5412;59.450;18.124;2022-09-09T05:57:07;14.80;99.90
10722;DHT22;5412;59.450;18.124;2022-09-09T05:59:32;14.90;99.90
10722;DHT22;5412;59.450;18.124;2022-09-09T06:01:58;14.90;99.90
10722;DHT22;5412;59.450;18.124;2022-09-09T06:04:24;15.00;99.90
10722;DHT22;5412;59.450;18.124;2022-09-09T06:06:50;15.00;99.90
10722;DHT22;5412;59.450;18.124;2022-09-09T06:09:16;15.00;99.90
10722;DHT22;5412;59.450;18.124;2022-09-09T06:11:43;15.00;99.90
10722;DHT22;5412;59.450;18.124;2022-09-09T06:14:09;15.10;99.90
10722;DHT22;5412;59.450;18.124;2022-09-09T06:16:35;15.00;99.90
10722;DHT22;5412;59.450;18.124;2022-09-09T06:19:03;15.00;99.90
10722;DHT22;5412;59.450;18.124;2022-09-09T06:21:34;14.90;99.90
10722;DHT22;5412;59.450;18.124;2022-09-09T06:24:02;14.90;99.90
10722;DHT22;5412;59.450;18.124;2022-09-09T06:26:33;14.90;99.90
10722;DHT22;5412;59.450;18.124;2022-09-09T06:29:00;14.80;99.90
10722;DHT22;5412;59.450;18.124;2022-09-09T06:31:28;14.80;99.90
10722;DHT22;5412;59.450;18.124;2022-09-09T06:33:56;14.90;99.90
10722;DHT22;5412;59.450;18.124;2022-09-09T06:36:24;14.90;99.90
10722;DHT22;5412;59.450;18.124;2022-09-09T06:38:50;15.00;99.90
10722;DHT22;5412;59.450;18.124;2022-09-09T06:41:18;15.10;99.90
10722;DHT22;5412;59.450;18.124;2022-09-09T06:43:44;15.20;99.90
10722;DHT22;5412;59.450;18.124;2022-09-09T06:46:13;15.30;99.90
10722;DHT22;5412;59.450;18.124;2022-09-09T06:48:40;15.30;99.90
10722;DHT22;5412;59.450;18.124;2022-09-09T06:51:20;15.30;99.90
10722;DHT22;5412;59.450;18.124;2022-09-09T06:53:49;15.30;99.90
10722;DHT22;5412;59.450;18.124;2022-09-09T06:56:35;15.30;99.90
10722;DHT22;5412;59.450;18.124;2022-09-09T06:59:04;15.30;99.90
10722;DHT22;5412;59.450;18.124;2022-09-09T07:01:32;15.30;99.90
10722;DHT22;5412;59.450;18.124;2022-09-09T07:03:59;15.20;99.90
10722;DHT22;5412;59.450;18.124;2022-09-09T07:06:33;15.20;99.90
10722;DHT22;5412;59.450;18.124;2022-09-09T07:09:11;15.20;99.90
10722;DHT22;5412;59.450;18.124;2022-09-09T07:11:46;15.10;99.90
10722;DHT22;5412;59.450;18.124;2022-09-09T07:14:12;15.20;99.90
10722;DHT22;5412;59.450;18.124;2022-09-09T07:16:40;15.30;99.90
10722;DHT22;5412;59.450;18.124;2022-09-09T07:19:05;15.30;99.90
10722;DHT22;5412;59.450;18.124;2022-09-09T07:21:32;15.50;99.90
10722;DHT22;5412;59.450;18.124;2022-09-09T07:23:59;15.70;99.90
10722;DHT22;5412;59.450;18.124;2022-09-09T07:26:27;15.80;99.90
10722;DHT22;5412;59.450;18.124;2022-09-09T07:28:53;15.90;99.90
10722;DHT22;5412;59.450;18.124;2022-09-09T07:31:27;16.00;99.90
10722;DHT22;5412;59.450;18.124;2022-09-09T07:33:53;16.10;99.90
10722;DHT22;5412;59.450;18.124;2022-09-09T07:36:25;16.20;99.90
10722;DHT22;5412;59.450;18.124;2022-09-09T07:38:53;16.30;99.90
10722;DHT22;5412;59.450;18.124;2022-09-09T07:41:21;16.10;99.90
10722;DHT22;5412;59.450;18.124;2022-09-09T07:43:48;16.30;99.90
10722;DHT22;5412;59.450;18.124;2022-09-09T07:46:15;16.20;99.90
10722;DHT22;5412;59.450;18.124;2022-09-09T07:48:45;16.30;99.90
10722;DHT22;5412;59.450;18.124;2022-09-09T07:51:15;16.30;99.90
10722;DHT22;5412;59.450;18.124;2022-09-09T07:53:45;16.30;99.90
10722;DHT22;5412;59.450;18.124;2022-09-09T07:56:13;16.30;99.90
10722;DHT22;5412;59.450;18.124;2022-09-09T07:58:40;16.10;99.90
10722;DHT22;5412;59.450;18.124;2022-09-09T08:01:10;16.10;99.90
10722;DHT22;5412;59.450;18.124;2022-09-09T08:03:37;16.10;99.90
10722;DHT22;5412;59.450;18.124;2022-09-09T08:06:05;16.00;99.90
10722;DHT22;5412;59.450;18.124;2022-09-09T08:08:33;15.80;99.90
10722;DHT22;5412;59.450;18.124;2022-09-09T08:11:04;15.90;99.90
10722;DHT22;5412;59.450;18.124;2022-09-09T08:13:30;15.80;99.90
10722;DHT22;5412;59.450;18.124;2022-09-09T08:16:04;15.90;99.90
10722;DHT22;5412;59.450;18.124;2022-09-09T08:18:31;16.00;99.90
10722;DHT22;5412;59.450;18.124;2022-09-09T08:20:56;16.10;99.90
10722;DHT22;5412;59.450;18.124;2022-09-09T08:23:22;16.00;99.90
10722;DHT22;5412;59.450;18.124;2022-09-09T08:25:48;15.70;99.90
10722;DHT22;5412;59.450;18.124;2022-09-09T08:28:14;15.70;99.90
10722;DHT22;5412;59.450;18.124;2022-09-09T08:30:40;15.80;99.90
10722;DHT22;5412;59.450;18.124;2022-09-09T08:33:05;15.70;99.90
10722;DHT22;5412;59.450;18.124;2022-09-09T08:35:31;15.70;99.90
10722;DHT22;5412;59.450;18.124;2022-09-09T08:37:57;15.70;99.90
10722;DHT22;5412;59.450;18.124;2022-09-09T08:40:34;15.70;99.90
10722;DHT22;5412;59.450;18.124;2022-09-09T08:43:04;15.90;99.90
10722;DHT22;5412;59.450;18.124;2022-09-09T08:46:00;15.90;99.90
10722;DHT22;5412;59.450;18.124;2022-09-09T08:48:52;16.00;99.90
10722;DHT22;5412;59.450;18.124;2022-09-09T08:51:20;15.90;99.90
10722;DHT22;5412;59.450;18.124;2022-09-09T08:53:51;15.90;99.90
10722;DHT22;5412;59.450;18.124;2022-09-09T08:56:21;15.90;99.90
10722;DHT22;5412;59.450;18.124;2022-09-09T08:58:48;15.80;99.90
10722;DHT22;5412;59.450;18.124;2022-09-09T09:04:37;15.80;99.90
10722;DHT22;5412;59.450;18.124;2022-09-09T09:12:44;15.90;99.90
10722;DHT22;5412;59.450;18.124;2022-09-09T09:15:19;16.00;99.90
10722;DHT22;5412;59.450;18.124;2022-09-09T09:17:46;16.10;99.90
10722;DHT22;5412;59.450;18.124;2022-09-09T09:20:15;16.00;99.90
10722;DHT22;5412;59.450;18.124;2022-09-09T09:22:51;16.10;99.90
10722;DHT22;5412;59.450;18.124;2022-09-09T09:25:31;15.90;99.90
10722;DHT22;5412;59.450;18.124;2022-09-09T09:28:01;16.00;99.90
10722;DHT22;5412;59.450;18.124;2022-09-09T09:31:07;16.00;99.90
10722;DHT22;5412;59.450;18.124;2022-09-09T09:34:09;16.00;99.90
10722;DHT22;5412;59.450;18.124;2022-09-09T09:36:45;16.00;99.90
10722;DHT22;5412;59.450;18.124;2022-09-09T09:39:24;16.00;99.90
10722;DHT22;5412;59.450;18.124;2022-09-09T09:41:51;16.10;99.90
10722;DHT22;5412;59.450;18.124;2022-09-09T09:44:28;16.10;99.90
10722;DHT22;5412;59.450;18.124;2022-09-09T09:47:15;16.20;99.90
10722;DHT22;5412;59.450;18.124;2022-09-09T09:49:55;16.40;99.90
10722;DHT22;5412;59.450;18.124;2022-09-09T09:52:26;16.60;99.90
10722;DHT22;5412;59.450;18.124;2022-09-09T09:54:53;16.60;99.90
10722;DHT22;5412;59.450;18.124;2022-09-09T09:57:27;16.60;99.90
10722;DHT22;5412;59.450;18.124;2022-09-09T10:00:03;16.50;99.90
10722;DHT22;5412;59.450;18.124;2022-09-09T10:02:38;16.30;99.90
10722;DHT22;5412;59.450;18.124;2022-09-09T10:05:16;16.50;99.90
10722;DHT22;5412;59.450;18.124;2022-09-09T10:07:42;16.40;99.90
10722;DHT22;5412;59.450;18.124;2022-09-09T10:10:20;16.50;99.90
10722;DHT22;5412;59.450;18.124;2022-09-09T10:15:36;16.80;99.90
10722;DHT22;5412;59.450;18.124;2022-09-09T10:21:39;17.00;99.90
10722;DHT22;5412;59.450;18.124;2022-09-09T10:26:53;17.10;99.90
10722;DHT22;5412;59.450;18.124;2022-09-09T10:35:17;17.70;99.90
10722;DHT22;5412;59.450;18.124;2022-09-09T10:40:29;17.50;99.90
10722;DHT22;5412;59.450;18.124;2022-09-09T10:43:25;17.40;99.90
10722;DHT22;5412;59.450;18.124;2022-09-09T10:48:59;17.50;99.90
10722;DHT22;5412;59.450;18.124;2022-09-09T10:51:47;17.50;99.90
10722;DHT22;5412;59.450;18.124;2022-09-09T10:57:13;17.40;99.90
10722;DHT22;5412;59.450;18.124;2022-09-09T10:59:45;17.30;99.90
10722;DHT22;5412;59.450;18.124;2022-09-09T11:02:36;17.10;99.90
10722;DHT22;5412;59.450;18.124;2022-09-09T11:05:30;17.00;99.90
10722;DHT22;5412;59.450;18.124;2022-09-09T11:08:13;16.90;99.90
10722;DHT22;5412;59.450;18.124;2022-09-09T11:16:17;16.60;99.90
10722;DHT22;5412;59.450;18.124;2022-09-09T11:18:46;16.60;99.90
10722;DHT22;5412;59.450;18.124;2022-09-09T11:21:29;16.70;99.90
10722;DHT22;5412;59.450;18.124;2022-09-09T11:24:10;16.60;99.90
10722;DHT22;5412;59.450;18.124;2022-09-09T11:35:41;16.60;99.90
10722;DHT22;5412;59.450;18.124;2022-09-09T11:40:36;16.60;99.90
10722;DHT22;5412;59.450;18.124;2022-09-09T11:43:09;16.70;99.90
10722;DHT22;5412;59.450;18.124;2022-09-09T11:45:38;16.70;99.90
10722;DHT22;5412;59.450;18.124;2022-09-09T11:48:05;16.70;99.90
10722;DHT22;5412;59.450;18.124;2022-09-09T11:50:58;16.40;99.90
10722;DHT22;5412;59.450;18.124;2022-09-09T11:53:24;16.40;99.90
10722;DHT22;5412;59.450;18.124;2022-09-09T11:56:12;16.50;99.90
10722;DHT22;5412;59.450;18.124;2022-09-09T11:58:58;16.40;99.90
10722;DHT22;5412;59.450;18.124;2022-09-09T12:04:05;16.30;99.90
10722;DHT22;5412;59.450;18.124;2022-09-09T12:06:33;16.40;99.90
10722;DHT22;5412;59.450;18.124;2022-09-09T12:11:46;16.40;99.90
10722;DHT22;5412;59.450;18.124;2022-09-09T12:14:37;16.30;99.90
10722;DHT22;5412;59.450;18.124;2022-09-09T12:17:30;16.20;99.90
10722;DHT22;5412;59.450;18.124;2022-09-09T12:20:02;16.20;99.90
10722;DHT22;5412;59.450;18.124;2022-09-09T12:31:27;16.80;99.90
10722;DHT22;5412;59.450;18.124;2022-09-09T12:34:28;17.00;99.90
10722;DHT22;5412;59.450;18.124;2022-09-09T12:36:55;16.90;99.90
10722;DHT22;5412;59.450;18.124;2022-09-09T12:39:32;16.90;99.90
10722;DHT22;5412;59.450;18.124;2022-09-09T12:41:59;16.70;99.90
10722;DHT22;5412;59.450;18.124;2022-09-09T12:44:26;16.70;99.90
10722;DHT22;5412;59.450;18.124;2022-09-09T12:46:54;16.70;99.90
10722;DHT22;5412;59.450;18.124;2022-09-09T12:49:30;16.80;99.90
10722;DHT22;5412;59.450;18.124;2022-09-09T12:52:24;17.10;99.90
10722;DHT22;5412;59.450;18.124;2022-09-09T12:54:47;17.40;99.90
10722;DHT22;5412;59.450;18.124;2022-09-09T12:57:14;17.50;99.90
10722;DHT22;5412;59.450;18.124;2022-09-09T12:59:43;17.60;99.90
10722;DHT22;5412;59.450;18.124;2022-09-09T13:02:25;17.80;99.90
10722;DHT22;5412;59.450;18.124;2022-09-09T13:04:51;17.70;99.90
10722;DHT22;5412;59.450;18.124;2022-09-09T13:07:19;17.50;99.90
10722;DHT22;5412;59.450;18.124;2022-09-09T13:09:46;17.70;99.90
10722;DHT22;5412;59.450;18.124;2022-09-09T13:12:21;17.80;99.90
10722;DHT22;5412;59.450;18.124;2022-09-09T13:14:50;17.70;99.90
10722;DHT22;5412;59.450;18.124;2022-09-09T13:17:22;17.70;99.90
10722;DHT22;5412;59.450;18.124;2022-09-09T13:19:49;17.40;99.90
10722;DHT22;5412;59.450;18.124;2022-09-09T13:22:31;17.50;99.90
10722;DHT22;5412;59.450;18.124;2022-09-09T13:25:19;17.50;99.90
10722;DHT22;5412;59.450;18.124;2022-09-09T13:27:59;17.40;99.90
10722;DHT22;5412;59.450;18.124;2022-09-09T13:30:36;17.20;99.90
10722;DHT22;5412;59.450;18.124;2022-09-09T13:35:50;17.90;99.90
10722;DHT22;5412;59.450;18.124;2022-09-09T13:38:17;18.00;99.90
10722;DHT22;5412;59.450;18.124;2022-09-09T13:41:09;17.90;99.90
10722;DHT22;5412;59.450;18.124;2022-09-09T13:43:45;18.30;99.90
10722;DHT22;5412;59.450;18.124;2022-09-09T13:46:38;18.10;99.90
10722;DHT22;5412;59.450;18.124;2022-09-09T13:51:39;17.70;99.90
10722;DHT22;5412;59.450;18.124;2022-09-09T13:54:06;17.60;99.90
10722;DHT22;5412;59.450;18.124;2022-09-09T13:56:36;17.60;99.90
10722;DHT22;5412;59.450;18.124;2022-09-09T13:59:04;17.60;99.90
10722;DHT22;5412;59.450;18.124;2022-09-09T14:01:30;17.60;99.90
10722;DHT22;5412;59.450;18.124;2022-09-09T14:03:56;17.50;99.90
10722;DHT22;5412;59.450;18.124;2022-09-09T14:06:22;17.90;99.90
10722;DHT22;5412;59.450;18.124;2022-09-09T14:08:49;17.80;99.90
10722;DHT22;5412;59.450;18.124;2022-09-09T14:11:16;17.80;99.90
10722;DHT22;5412;59.450;18.124;2022-09-09T14:13:42;17.70;99.90
10722;DHT22;5412;59.450;18.124;2022-09-09T14:16:07;17.30;99.90
10722;DHT22;5412;59.450;18.124;2022-09-09T14:18:33;17.40;99.90
10722;DHT22;5412;59.450;18.124;2022-09-09T14:20:59;17.80;99.90
10722;DHT22;5412;59.450;18.124;2022-09-09T14:23:25;18.30;99.90
10722;DHT22;5412;59.450;18.124;2022-09-09T14:25:51;18.30;99.90
10722;DHT22;5412;59.450;18.124;2022-09-09T14:28:17;18.60;99.90
10722;DHT22;5412;59.450;18.124;2022-09-09T14:30:43;18.30;99.90
10722;DHT22;5412;59.450;18.124;2022-09-09T14:33:15;18.10;99.90
10722;DHT22;5412;59.450;18.124;2022-09-09T14:35:42;17.80;99.90
10722;DHT22;5412;59.450;18.124;2022-09-09T14:38:08;17.50;99.90
10722;DHT22;5412;59.450;18.124;2022-09-09T14:40:36;17.80;99.90
10722;DHT22;5412;59.450;18.124;2022-09-09T14:43:02;17.70;99.90
10722;DHT22;5412;59.450;18.124;2022-09-09T14:45:28;17.30;99.90
10722;DHT22;5412;59.450;18.124;2022-09-09T14:47:54;18.70;99.90
10722;DHT22;5412;59.450;18.124;2022-09-09T14:50:21;19.00;99.90
10722;DHT22;5412;59.450;18.124;2022-09-09T14:52:47;19.20;99.90
10722;DHT22;5412;59.450;18.124;2022-09-09T14:55:13;19.30;99.90
10722;DHT22;5412;59.450;18.124;2022-09-09T14:57:39;19.00;99.90
10722;DHT22;5412;59.450;18.124;2022-09-09T15:00:06;18.80;99.90
10722;DHT22;5412;59.450;18.124;2022-09-09T15:02:33;19.60;99.90
10722;DHT22;5412;59.450;18.124;2022-09-09T15:04:59;18.80;99.90
10722;DHT22;5412;59.450;18.124;2022-09-09T15:07:25;19.20;99.90
10722;DHT22;5412;59.450;18.124;2022-09-09T15:09:52;18.60;99.90
10722;DHT22;5412;59.450;18.124;2022-09-09T15:12:18;18.10;99.90
10722;DHT22;5412;59.450;18.124;2022-09-09T15:14:45;17.60;99.90
10722;DHT22;5412;59.450;18.124;2022-09-09T15:17:11;17.20;99.90
10722;DHT22;5412;59.450;18.124;2022-09-09T15:19:37;16.90;99.90
10722;DHT22;5412;59.450;18.124;2022-09-09T15:22:04;16.60;99.90
10722;DHT22;5412;59.450;18.124;2022-09-09T15:24:34;16.70;99.90
10722;DHT22;5412;59.450;18.124;2022-09-09T15:27:00;16.60;99.90
10722;DHT22;5412;59.450;18.124;2022-09-09T15:29:26;16.40;99.90
10722;DHT22;5412;59.450;18.124;2022-09-09T15:31:54;16.30;99.90
10722;DHT22;5412;59.450;18.124;2022-09-09T15:34:20;16.10;99.90
10722;DHT22;5412;59.450;18.124;2022-09-09T15:36:46;16.00;99.90
10722;DHT22;5412;59.450;18.124;2022-09-09T15:39:16;15.90;99.90
10722;DHT22;5412;59.450;18.124;2022-09-09T15:41:43;15.90;99.90
10722;DHT22;5412;59.450;18.124;2022-09-09T15:44:09;15.80;99.90
10722;DHT22;5412;59.450;18.124;2022-09-09T15:46:40;15.90;99.90
10722;DHT22;5412;59.450;18.124;2022-09-09T15:49:14;16.00;99.90
10722;DHT22;5412;59.450;18.124;2022-09-09T15:51:42;16.10;99.90
10722;DHT22;5412;59.450;18.124;2022-09-09T15:54:09;16.10;99.90
10722;DHT22;5412;59.450;18.124;2022-09-09T15:56:35;16.00;99.90
10722;DHT22;5412;59.450;18.124;2022-09-09T15:59:01;15.90;99.90
10722;DHT22;5412;59.450;18.124;2022-09-09T16:01:29;15.80;99.90
10722;DHT22;5412;59.450;18.124;2022-09-09T16:03:56;15.80;99.90
10722;DHT22;5412;59.450;18.124;2022-09-09T16:06:23;15.70;99.90
10722;DHT22;5412;59.450;18.124;2022-09-09T16:08:51;15.70;99.90
10722;DHT22;5412;59.450;18.124;2022-09-09T16:11:20;15.80;99.90
10722;DHT22;5412;59.450;18.124;2022-09-09T16:13:48;15.70;99.90
10722;DHT22;5412;59.450;18.124;2022-09-09T16:16:15;15.70;99.90
10722;DHT22;5412;59.450;18.124;2022-09-09T16:18:46;15.70;99.90
10722;DHT22;5412;59.450;18.124;2022-09-09T16:23:42;15.60;99.90
10722;DHT22;5412;59.450;18.124;2022-09-09T16:26:11;15.50;99.90
10722;DHT22;5412;59.450;18.124;2022-09-09T16:28:37;15.60;99.90
10722;DHT22;5412;59.450;18.124;2022-09-09T16:31:09;15.50;99.90
10722;DHT22;5412;59.450;18.124;2022-09-09T16:33:36;15.40;99.90
10722;DHT22;5412;59.450;18.124;2022-09-09T16:36:06;15.30;99.90
10722;DHT22;5412;59.450;18.124;2022-09-09T16:38:32;15.40;99.90
10722;DHT22;5412;59.450;18.124;2022-09-09T16:41:05;15.40;99.90
10722;DHT22;5412;59.450;18.124;2022-09-09T16:43:32;15.40;99.90
10722;DHT22;5412;59.450;18.124;2022-09-09T16:45:58;15.20;99.90
10722;DHT22;5412;59.450;18.124;2022-09-09T16:48:32;15.10;99.90
10722;DHT22;5412;59.450;18.124;2022-09-09T16:51:06;15.10;99.90
10722;DHT22;5412;59.450;18.124;2022-09-09T16:53:33;15.00;99.90
10722;DHT22;5412;59.450;18.124;2022-09-09T16:56:05;15.00;99.90
10722;DHT22;5412;59.450;18.124;2022-09-09T16:58:31;15.00;99.90
10722;DHT22;5412;59.450;18.124;2022-09-09T17:01:03;15.10;99.90
10722;DHT22;5412;59.450;18.124;2022-09-09T17:03:29;15.10;99.90
10722;DHT22;5412;59.450;18.124;2022-09-09T17:05:56;15.00;99.90
10722;DHT22;5412;59.450;18.124;2022-09-09T17:08:23;15.00;99.90
10722;DHT22;5412;59.450;18.124;2022-09-09T17:10:49;14.90;99.90
10722;DHT22;5412;59.450;18.124;2022-09-09T17:13:15;14.90;99.90
10722;DHT22;5412;59.450;18.124;2022-09-09T17:15:45;14.80;99.90
10722;DHT22;5412;59.450;18.124;2022-09-09T17:18:12;14.60;99.90
10722;DHT22;5412;59.450;18.124;2022-09-09T17:20:39;14.70;99.90
10722;DHT22;5412;59.450;18.124;2022-09-09T17:23:06;14.60;99.90
10722;DHT22;5412;59.450;18.124;2022-09-09T17:25:33;14.60;99.90
10722;DHT22;5412;59.450;18.124;2022-09-09T17:27:59;14.50;99.90
10722;DHT22;5412;59.450;18.124;2022-09-09T17:30:26;14.50;99.90
10722;DHT22;5412;59.450;18.124;2022-09-09T17:32:53;14.40;99.90
10722;DHT22;5412;59.450;18.124;2022-09-09T17:35:18;14.40;99.90
10722;DHT22;5412;59.450;18.124;2022-09-09T17:37:44;14.40;99.90
10722;DHT22;5412;59.450;18.124;2022-09-09T17:40:10;14.30;99.90
10722;DHT22;5412;59.450;18.124;2022-09-09T17:42:36;14.30;99.90
10722;DHT22;5412;59.450;18.124;2022-09-09T17:45:02;14.20;99.90
10722;DHT22;5412;59.450;18.124;2022-09-09T17:47:28;14.20;99.90
10722;DHT22;5412;59.450;18.124;2022-09-09T17:49:56;14.10;99.90
10722;DHT22;5412;59.450;18.124;2022-09-09T17:52:21;14.10;99.90
10722;DHT22;5412;59.450;18.124;2022-09-09T17:54:48;14.00;99.90